createdAt,value
2017-10-11T00:00:58.622Z,13.2
2017-10-11T00:02:10.876Z,13.31
2017-10-11T00:03:23.120Z,13.31
2017-10-11T00:04:35.042Z,13.36
2017-10-11T00:05:46.963Z,13.2
2017-10-11T00:06:59.207Z,13.24
2017-10-11T00:08:11.471Z,13.33
2017-10-11T00:09:24.025Z,13.33
2017-10-11T00:10:36.599Z,13.39
2017-10-11T00:11:48.840Z,13.33
2017-10-11T00:13:00.761Z,13.37
2017-10-11T00:14:13.332Z,13.36
2017-10-11T00:15:25.928Z,13.39
2017-10-11T00:16:38.499Z,13.39
2017-10-11T00:17:51.096Z,13.36
2017-10-11T00:19:03.340Z,13.36
2017-10-11T00:20:15.268Z,13.37
2017-10-11T00:21:27.831Z,13.42
2017-10-11T00:22:40.402Z,13.36
2017-10-11T00:23:53.000Z,13.46
2017-10-11T00:25:05.243Z,13.39
2017-10-11T00:26:17.819Z,13.45
2017-10-11T00:27:30.064Z,13.33
2017-10-11T00:28:42.331Z,13.46
2017-10-11T00:29:54.575Z,13.47
2017-10-11T00:31:06.822Z,13.45
2017-10-11T00:32:19.066Z,13.47
2017-10-11T00:33:31.316Z,13.5
2017-10-11T00:34:43.582Z,13.46
2017-10-11T00:35:56.153Z,13.47
2017-10-11T00:37:08.074Z,13.47
2017-10-11T00:38:20.646Z,13.52
2017-10-11T00:39:32.265Z,13.49
2017-10-11T00:40:44.811Z,13.5
2017-10-11T00:41:57.691Z,13.43
2017-10-11T00:43:10.251Z,13.49
2017-10-11T00:44:21.874Z,13.5
2017-10-11T00:45:34.136Z,13.45
2017-10-11T00:46:46.715Z,13.49
2017-10-11T00:47:59.285Z,13.47
2017-10-11T00:49:11.531Z,13.43
2017-10-11T00:50:23.453Z,13.49
2017-10-11T00:51:35.714Z,13.5
2017-10-11T00:52:48.285Z,13.45
2017-10-11T00:54:00.564Z,13.39
2017-10-11T00:55:12.484Z,13.43
2017-10-11T00:56:24.431Z,13.46
2017-10-11T00:57:36.375Z,13.46
2017-10-11T00:58:48.965Z,13.42
2017-10-11T01:00:00.892Z,13.43
2017-10-11T01:01:13.491Z,13.46
2017-10-11T01:02:26.058Z,13.47
2017-10-11T01:03:38.622Z,13.47
2017-10-11T01:04:51.174Z,13.47
2017-10-11T01:06:03.747Z,13.47
2017-10-11T01:07:15.991Z,13.5
2017-10-11T01:08:28.587Z,13.52
2017-10-11T01:09:40.532Z,13.47
2017-10-11T01:10:52.803Z,13.55
2017-10-11T01:12:05.052Z,13.47
2017-10-11T01:13:17.619Z,13.6
2017-10-11T01:14:30.190Z,13.52
2017-10-11T01:15:42.127Z,13.54
2017-10-11T01:16:54.373Z,13.55
2017-10-11T01:18:06.927Z,13.55
2017-10-11T01:19:19.499Z,13.55
2017-10-11T01:20:32.067Z,13.54
2017-10-11T01:21:44.639Z,13.58
2017-10-11T01:22:56.883Z,13.6
2017-10-11T01:24:09.151Z,13.58
2017-10-11T01:25:22.001Z,13.55
2017-10-11T01:26:34.250Z,13.55
2017-10-11T01:27:46.492Z,13.55
2017-10-11T01:28:59.062Z,13.6
2017-10-11T01:30:11.310Z,13.55
2017-10-11T01:31:23.877Z,13.52
2017-10-11T01:32:36.423Z,13.55
2017-10-11T01:33:48.995Z,13.55
2017-10-11T01:35:01.243Z,13.57
2017-10-11T01:36:13.514Z,13.58
2017-10-11T01:37:25.775Z,13.5
2017-10-11T01:38:38.360Z,13.58
2017-10-11T01:39:50.974Z,13.58
2017-10-11T01:41:02.897Z,13.55
2017-10-11T01:42:14.535Z,13.6
2017-10-11T01:43:26.464Z,13.57
2017-10-11T01:44:39.036Z,13.55
2017-10-11T01:45:51.601Z,13.6
2017-10-11T01:47:04.472Z,13.58
2017-10-11T01:48:17.043Z,13.6
2017-10-11T01:49:29.614Z,13.55
2017-10-11T01:50:41.551Z,13.54
2017-10-11T01:51:53.155Z,13.64
2017-10-11T01:53:05.726Z,13.55
2017-10-11T01:54:17.662Z,13.54
2017-10-11T01:55:29.590Z,13.64
2017-10-11T01:56:41.837Z,13.55
2017-10-11T01:57:54.082Z,13.65
2017-10-11T01:59:05.704Z,13.62
2017-10-11T02:00:18.287Z,13.58
2017-10-11T02:01:30.848Z,13.62
2017-10-11T02:02:43.118Z,13.57
2017-10-11T02:03:55.362Z,13.61
2017-10-11T02:05:06.958Z,13.61
2017-10-11T02:06:19.227Z,13.55
2017-10-11T02:07:31.149Z,13.64
2017-10-11T02:08:43.419Z,13.58
2017-10-11T02:09:55.673Z,13.55
2017-10-11T02:11:07.613Z,13.57
2017-10-11T02:12:19.530Z,13.61
2017-10-11T02:13:31.776Z,13.62
2017-10-11T02:14:43.697Z,13.65
2017-10-11T02:15:56.267Z,13.61
2017-10-11T02:17:07.872Z,13.73
2017-10-11T02:18:19.809Z,13.62
2017-10-11T02:19:31.997Z,13.58
2017-10-11T02:20:44.593Z,13.5
2017-10-11T02:21:56.845Z,13.55
2017-10-11T02:23:09.409Z,13.55
2017-10-11T02:24:21.638Z,13.58
2017-10-11T02:25:33.575Z,13.54
2017-10-11T02:26:46.129Z,13.5
2017-10-11T02:27:58.701Z,13.54
2017-10-11T02:29:10.646Z,13.5
2017-10-11T02:30:22.893Z,13.46
2017-10-11T02:31:35.460Z,13.52
2017-10-11T02:32:47.725Z,13.46
2017-10-11T02:33:59.979Z,13.46
2017-10-11T02:35:11.898Z,13.49
2017-10-11T02:36:24.145Z,13.45
2017-10-11T02:37:36.065Z,13.46
2017-10-11T02:38:47.690Z,13.45
2017-10-11T02:40:00.256Z,13.36
2017-10-11T02:41:12.804Z,13.39
2017-10-11T02:42:25.049Z,13.33
2017-10-11T02:43:37.294Z,13.47
2017-10-11T02:44:49.566Z,13.42
2017-10-11T02:46:02.151Z,13.33
2017-10-11T02:47:14.722Z,13.4
2017-10-11T02:48:27.001Z,13.36
2017-10-11T02:49:38.947Z,13.42
2017-10-11T02:50:51.198Z,13.43
2017-10-11T02:52:03.787Z,13.37
2017-10-11T02:53:16.051Z,13.45
2017-10-11T02:54:28.279Z,13.42
2017-10-11T02:55:40.218Z,13.39
2017-10-11T02:56:52.787Z,13.43
2017-10-11T02:58:05.341Z,13.43
2017-10-11T02:59:17.287Z,13.39
2017-10-11T03:00:29.531Z,13.37
2017-10-11T03:01:41.778Z,13.4
2017-10-11T03:02:54.350Z,13.39
2017-10-11T03:04:06.919Z,13.37
2017-10-11T03:05:19.168Z,13.33
2017-10-11T03:06:31.103Z,13.31
2017-10-11T03:07:43.656Z,13.36
2017-10-11T03:08:55.901Z,13.31
2017-10-11T03:10:08.488Z,13.37
2017-10-11T03:11:20.743Z,13.37
2017-10-11T03:12:32.988Z,13.39
2017-10-11T03:13:44.910Z,13.37
2017-10-11T03:14:57.158Z,13.27
2017-10-11T03:16:09.405Z,13.27
2017-10-11T03:17:21.338Z,13.28
2017-10-11T03:18:33.273Z,13.31
2017-10-11T03:19:45.514Z,13.28
2017-10-11T03:20:58.082Z,13.37
2017-10-11T03:22:10.008Z,13.3
2017-10-11T03:23:22.575Z,13.31
2017-10-11T03:24:34.820Z,13.27
2017-10-11T03:25:47.391Z,13.28
2017-10-11T03:26:59.636Z,13.3
2017-10-11T03:28:11.883Z,13.23
2017-10-11T03:29:24.453Z,13.24
2017-10-11T03:30:37.025Z,13.24
2017-10-11T03:31:49.610Z,13.24
2017-10-11T03:33:01.842Z,13.24
2017-10-11T03:34:14.086Z,13.33
2017-10-11T03:35:26.331Z,13.2
2017-10-11T03:36:38.576Z,13.21
2017-10-11T03:37:50.824Z,13.23
2017-10-11T03:39:03.066Z,13.23
2017-10-11T03:40:15.005Z,13.28
2017-10-11T03:41:26.614Z,13.2
2017-10-11T03:42:38.548Z,13.31
2017-10-11T03:43:51.125Z,13.21
2017-10-11T03:45:03.347Z,13.23
2017-10-11T03:46:15.892Z,13.27
2017-10-11T03:47:28.463Z,13.24
2017-10-11T03:48:40.088Z,13.27
2017-10-11T03:49:52.021Z,13.2
2017-10-11T03:51:04.574Z,13.23
2017-10-11T03:52:17.147Z,13.24
2017-10-11T03:53:29.716Z,13.23
2017-10-11T03:54:41.637Z,13.2
2017-10-11T03:55:54.206Z,13.3
2017-10-11T03:57:07.034Z,13.23
2017-10-11T03:58:19.624Z,13.23
2017-10-11T03:59:31.244Z,13.17
2017-10-11T04:00:43.819Z,13.24
2017-10-11T04:01:56.385Z,13.17
2017-10-11T04:03:08.306Z,13.23
2017-10-11T04:04:20.877Z,13.26
2017-10-11T04:05:32.502Z,13.26
2017-10-11T04:06:44.744Z,13.13
2017-10-11T04:07:57.563Z,13.17
2017-10-11T04:09:10.135Z,13.12
2017-10-11T04:10:22.380Z,13.12
2017-10-11T04:11:34.626Z,13.21
2017-10-11T04:12:46.873Z,13.13
2017-10-11T04:13:59.452Z,13.12
2017-10-11T04:15:11.689Z,13.16
2017-10-11T04:16:23.309Z,13.2
2017-10-11T04:17:35.878Z,13.09
2017-10-11T04:18:48.150Z,13.12
2017-10-11T04:20:00.721Z,13.19
2017-10-11T04:21:12.342Z,13.17
2017-10-11T04:22:24.911Z,13.24
2017-10-11T04:23:37.158Z,13.12
2017-10-11T04:24:49.728Z,13.17
2017-10-11T04:26:01.349Z,13.2
2017-10-11T04:27:13.597Z,13.16
2017-10-11T04:28:25.840Z,13.16
2017-10-11T04:29:37.761Z,13.17
2017-10-11T04:30:49.399Z,13.13
2017-10-11T04:32:01.628Z,13.09
2017-10-11T04:33:13.897Z,13.19
2017-10-11T04:34:26.468Z,13.19
2017-10-11T04:35:38.665Z,13.2
2017-10-11T04:36:51.234Z,13.17
2017-10-11T04:38:03.480Z,13.06
2017-10-11T04:39:16.057Z,13.12
2017-10-11T04:40:28.870Z,13.16
2017-10-11T04:41:41.417Z,13.19
2017-10-11T04:42:53.688Z,13.19
2017-10-11T04:44:06.276Z,13.09
2017-10-11T04:45:18.505Z,13.19
2017-10-11T04:46:30.749Z,13.05
2017-10-11T04:47:43.321Z,13.2
2017-10-11T04:48:55.890Z,13.2
2017-10-11T04:50:07.824Z,13.19
2017-10-11T04:51:20.383Z,13.12
2017-10-11T04:52:32.634Z,13.12
2017-10-11T04:53:45.198Z,13.17
2017-10-11T04:54:57.774Z,13.2
2017-10-11T04:56:10.015Z,13.17
2017-10-11T04:57:21.961Z,13.12
2017-10-11T04:58:34.207Z,13.12
2017-10-11T04:59:46.458Z,13.11
2017-10-11T05:00:58.739Z,13.12
2017-10-11T05:02:11.318Z,13.11
2017-10-11T05:03:23.939Z,13.13
2017-10-11T05:04:35.265Z,13.08
2017-10-11T05:05:47.506Z,13.23
2017-10-11T05:06:59.755Z,13.11
2017-10-11T05:08:12.338Z,13.16
2017-10-11T05:09:24.584Z,13.13
2017-10-11T05:10:37.137Z,13.17
2017-10-11T05:11:49.385Z,13.13
2017-10-11T05:13:02.222Z,13.11
2017-10-11T05:14:14.475Z,13.13
2017-10-11T05:15:26.721Z,13.12
2017-10-11T05:16:38.984Z,13.08
2017-10-11T05:17:50.913Z,13.12
2017-10-11T05:19:03.158Z,13.11
2017-10-11T05:20:15.727Z,13.16
2017-10-11T05:21:28.274Z,13.11
2017-10-11T05:22:39.895Z,13.16
2017-10-11T05:23:52.390Z,13.16
2017-10-11T05:25:04.961Z,13.13
2017-10-11T05:26:17.530Z,13.12
2017-10-11T05:27:29.452Z,13.12
2017-10-11T05:28:41.404Z,13.12
2017-10-11T05:29:53.670Z,13.12
2017-10-11T05:31:05.915Z,13.03
2017-10-11T05:32:18.484Z,13.11
2017-10-11T05:33:30.406Z,13.02
2017-10-11T05:34:42.977Z,13.02
2017-10-11T05:35:55.546Z,13.01
2017-10-11T05:37:07.796Z,13.02
2017-10-11T05:38:20.405Z,13.08
2017-10-11T05:39:32.659Z,13.08
2017-10-11T05:40:44.933Z,13.03
2017-10-11T05:41:57.174Z,13.02
2017-10-11T05:43:09.745Z,13.03
2017-10-11T05:44:22.316Z,12.95
2017-10-11T05:45:34.579Z,13.11
2017-10-11T05:46:46.524Z,13.05
2017-10-11T05:47:58.753Z,13.06
2017-10-11T05:49:11.025Z,13.01
2017-10-11T05:50:23.595Z,13.03
2017-10-11T05:51:36.165Z,12.99
2017-10-11T05:52:48.736Z,13.12
2017-10-11T05:54:00.984Z,13.11
2017-10-11T05:55:12.919Z,13.13
2017-10-11T05:56:25.172Z,13.12
2017-10-11T05:57:37.418Z,13.16
2017-10-11T05:58:49.670Z,13.05
2017-10-11T06:00:02.234Z,13.08
2017-10-11T06:01:14.805Z,13.09
2017-10-11T06:02:26.726Z,13.13
2017-10-11T06:03:38.976Z,13.16
2017-10-11T06:04:51.542Z,13.17
2017-10-11T06:06:04.116Z,13.09
2017-10-11T06:07:16.683Z,13.08
2017-10-11T06:08:28.946Z,13.12
2017-10-11T06:09:41.199Z,12.98
2017-10-11T06:10:53.470Z,13.09
2017-10-11T06:12:05.410Z,13.13
2017-10-11T06:13:17.661Z,13.16
2017-10-11T06:14:30.209Z,13.09
2017-10-11T06:15:42.456Z,13.11
2017-10-11T06:16:54.698Z,13.12
2017-10-11T06:18:07.268Z,13.23
2017-10-11T06:19:19.515Z,13.23
2017-10-11T06:20:31.762Z,13.16
2017-10-11T06:21:44.362Z,13.19
2017-10-11T06:22:56.957Z,13.16
2017-10-11T06:24:08.549Z,13.13
2017-10-11T06:25:21.126Z,13.26
2017-10-11T06:26:33.362Z,13.17
2017-10-11T06:27:45.951Z,13.16
2017-10-11T06:28:58.205Z,13.16
2017-10-11T06:30:10.454Z,13.26
2017-10-11T06:31:22.371Z,13.26
2017-10-11T06:32:34.618Z,13.28
2017-10-11T06:33:46.862Z,13.36
2017-10-11T06:34:59.434Z,13.36
2017-10-11T06:36:11.681Z,13.4
2017-10-11T06:37:24.275Z,13.36
2017-10-11T06:38:36.519Z,13.36
2017-10-11T06:39:48.766Z,13.39
2017-10-11T06:41:01.035Z,13.4
2017-10-11T06:42:13.283Z,13.45
2017-10-11T06:43:25.528Z,13.45
2017-10-11T06:44:37.774Z,13.5
2017-10-11T06:45:50.344Z,13.55
2017-10-11T06:47:02.916Z,13.61
2017-10-11T06:48:14.540Z,13.64
2017-10-11T06:49:26.808Z,13.76
2017-10-11T06:50:38.430Z,13.83
2017-10-11T06:51:50.997Z,13.8
2017-10-11T06:53:02.943Z,13.79
2017-10-11T06:54:15.514Z,13.87
2017-10-11T06:55:28.083Z,13.87
2017-10-11T06:56:40.331Z,13.91
2017-10-11T06:57:52.575Z,14.03
2017-10-11T06:59:04.514Z,13.94
2017-10-11T07:00:17.071Z,14.04
2017-10-11T07:01:28.940Z,14.12
2017-10-11T07:02:41.508Z,14.15
2017-10-11T07:03:53.755Z,14.22
2017-10-11T07:05:06.000Z,14.2
2017-10-11T07:06:17.944Z,14.22
2017-10-11T07:07:30.525Z,14.34
2017-10-11T07:08:42.765Z,14.3
2017-10-11T07:09:55.331Z,14.33
2017-10-11T07:11:07.903Z,14.33
2017-10-11T07:12:19.849Z,14.31
2017-10-11T07:13:32.420Z,14.33
2017-10-11T07:14:44.666Z,14.4
2017-10-11T07:15:57.236Z,14.4
2017-10-11T07:17:09.806Z,14.37
2017-10-11T07:18:22.077Z,14.41
2017-10-11T07:19:34.650Z,14.45
2017-10-11T07:20:47.235Z,14.34
2017-10-11T07:21:59.514Z,14.44
2017-10-11T07:23:12.334Z,14.4
2017-10-11T07:24:24.907Z,14.43
2017-10-11T07:25:37.175Z,14.44
2017-10-11T07:26:49.420Z,14.48
2017-10-11T07:28:01.017Z,14.41
2017-10-11T07:29:13.588Z,14.43
2017-10-11T07:30:25.521Z,14.49
2017-10-11T07:31:37.778Z,14.44
2017-10-11T07:32:49.699Z,14.4
2017-10-11T07:34:01.621Z,14.45
2017-10-11T07:35:14.191Z,14.49
2017-10-11T07:36:26.761Z,14.43
2017-10-11T07:37:39.332Z,14.43
2017-10-11T07:38:51.904Z,14.41
2017-10-11T07:40:04.475Z,14.53
2017-10-11T07:41:16.720Z,14.45
2017-10-11T07:42:29.338Z,14.51
2017-10-11T07:43:41.261Z,14.58
2017-10-11T07:44:53.552Z,14.56
2017-10-11T07:46:06.102Z,14.52
2017-10-11T07:47:18.047Z,14.61
2017-10-11T07:48:30.294Z,14.52
2017-10-11T07:49:42.864Z,14.62
2017-10-11T07:50:55.427Z,14.59
2017-10-11T07:52:07.662Z,14.71
2017-10-11T07:53:20.275Z,14.61
2017-10-11T07:54:32.847Z,14.62
2017-10-11T07:55:45.421Z,14.78
2017-10-11T07:56:57.987Z,14.78
2017-10-11T07:58:09.933Z,14.78
2017-10-11T07:59:22.179Z,14.82
2017-10-11T08:00:34.424Z,14.81
2017-10-11T08:01:46.995Z,14.92
2017-10-11T08:02:58.940Z,14.9
2017-10-11T08:04:11.185Z,14.93
2017-10-11T08:05:22.808Z,15.02
2017-10-11T08:06:35.078Z,14.99
2017-10-11T08:07:47.340Z,15.08
2017-10-11T08:08:59.595Z,15.1
2017-10-11T08:10:12.168Z,15.15
2017-10-11T08:11:24.436Z,15.15
2017-10-11T08:12:37.024Z,15.3
2017-10-11T08:13:49.276Z,15.19
2017-10-11T08:15:01.847Z,15.23
2017-10-11T08:16:13.768Z,15.19
2017-10-11T08:17:26.339Z,15.36
2017-10-11T08:18:38.262Z,15.36
2017-10-11T08:19:50.523Z,15.37
2017-10-11T08:21:03.105Z,15.39
2017-10-11T08:22:15.671Z,15.41
2017-10-11T08:23:27.273Z,15.35
2017-10-11T08:24:39.839Z,15.41
2017-10-11T08:25:52.407Z,15.39
2017-10-11T08:27:04.655Z,15.36
2017-10-11T08:28:17.223Z,15.5
2017-10-11T08:29:29.790Z,15.45
2017-10-11T08:30:42.041Z,15.48
2017-10-11T08:31:54.335Z,15.57
2017-10-11T08:33:06.582Z,15.51
2017-10-11T08:34:18.202Z,15.54
2017-10-11T08:35:30.448Z,15.65
2017-10-11T08:36:42.694Z,15.63
2017-10-11T08:37:54.639Z,15.7
2017-10-11T08:39:07.186Z,15.67
2017-10-11T08:40:19.130Z,15.78
2017-10-11T08:41:30.752Z,15.92
2017-10-11T08:42:43.022Z,15.96
2017-10-11T08:43:55.274Z,15.98
2017-10-11T08:45:07.541Z,16.03
2017-10-11T08:46:20.109Z,16.06
2017-10-11T08:47:32.354Z,16.06
2017-10-11T08:48:44.599Z,16.13
2017-10-11T08:49:56.846Z,16.18
2017-10-11T08:51:09.093Z,16.28
2017-10-11T08:52:21.662Z,16.26
2017-10-11T08:53:33.583Z,16.34
2017-10-11T08:54:45.846Z,16.47
2017-10-11T08:55:58.416Z,16.51
2017-10-11T08:57:10.673Z,16.58
2017-10-11T08:58:22.616Z,16.64
2017-10-11T08:59:35.211Z,16.74
2017-10-11T09:00:47.403Z,16.86
2017-10-11T09:01:59.976Z,16.84
2017-10-11T09:03:12.549Z,16.87
2017-10-11T09:04:24.493Z,16.91
2017-10-11T09:05:36.757Z,16.99
2017-10-11T09:06:48.688Z,17.12
2017-10-11T09:08:00.630Z,17.02
2017-10-11T09:09:13.208Z,17.1
2017-10-11T09:10:25.447Z,16.99
2017-10-11T09:11:37.692Z,17.02
2017-10-11T09:12:49.938Z,17.01
2017-10-11T09:14:02.516Z,17.04
2017-10-11T09:15:14.772Z,16.99
2017-10-11T09:16:27.325Z,16.91
2017-10-11T09:17:39.588Z,16.91
2017-10-11T09:18:51.517Z,16.82
2017-10-11T09:20:04.092Z,16.79
2017-10-11T09:21:16.353Z,16.73
2017-10-11T09:22:28.929Z,16.69
2017-10-11T09:23:41.518Z,16.68
2017-10-11T09:24:53.445Z,16.69
2017-10-11T09:26:05.708Z,16.69
2017-10-11T09:27:18.264Z,16.65
2017-10-11T09:28:30.832Z,16.62
2017-10-11T09:29:43.416Z,16.61
2017-10-11T09:30:55.649Z,16.57
2017-10-11T09:32:08.219Z,16.55
2017-10-11T09:33:20.143Z,16.49
2017-10-11T09:34:32.085Z,16.47
2017-10-11T09:35:44.330Z,16.51
2017-10-11T09:36:56.587Z,16.49
2017-10-11T09:38:08.847Z,16.41
2017-10-11T09:39:21.118Z,16.5
2017-10-11T09:40:33.689Z,16.46
2017-10-11T09:41:46.260Z,16.41
2017-10-11T09:42:58.196Z,16.41
2017-10-11T09:44:10.776Z,16.39
2017-10-11T09:45:23.345Z,16.41
2017-10-11T09:46:35.617Z,16.4
2017-10-11T09:47:48.189Z,16.47
2017-10-11T09:49:00.763Z,16.44
2017-10-11T09:50:13.329Z,16.43
2017-10-11T09:51:25.599Z,16.44
2017-10-11T09:52:38.176Z,16.57
2017-10-11T09:53:50.416Z,16.61
2017-10-11T09:55:03.004Z,16.66
2017-10-11T09:56:15.248Z,16.68
2017-10-11T09:57:27.180Z,16.69
2017-10-11T09:58:39.748Z,16.61
2017-10-11T09:59:51.994Z,16.64
2017-10-11T10:01:04.588Z,16.68
2017-10-11T10:02:16.536Z,16.65
2017-10-11T10:03:29.107Z,16.59
2017-10-11T10:04:41.676Z,16.61
2017-10-11T10:05:54.264Z,16.59
2017-10-11T10:07:06.192Z,16.55
2017-10-11T10:08:18.763Z,16.51
2017-10-11T10:09:30.715Z,16.57
2017-10-11T10:10:42.954Z,16.47
2017-10-11T10:11:55.201Z,16.41
2017-10-11T10:13:07.787Z,16.36
2017-10-11T10:14:20.042Z,16.32
2017-10-11T10:15:32.313Z,16.28
2017-10-11T10:16:44.900Z,16.17
2017-10-11T10:17:57.146Z,16.17
2017-10-11T10:19:09.698Z,16.24
2017-10-11T10:20:21.962Z,16.24
2017-10-11T10:21:33.891Z,16.17
2017-10-11T10:22:45.837Z,16.09
2017-10-11T10:23:58.407Z,16.16
2017-10-11T10:25:10.977Z,16.12
2017-10-11T10:26:23.552Z,16
2017-10-11T10:27:35.498Z,16.1
2017-10-11T10:28:48.056Z,16.06
2017-10-11T10:30:00.610Z,16.03
2017-10-11T10:31:12.583Z,16.06
2017-10-11T10:32:25.156Z,16.06
2017-10-11T10:33:37.397Z,16.02
2017-10-11T10:34:49.659Z,15.98
2017-10-11T10:36:01.592Z,15.9
2017-10-11T10:37:14.159Z,15.94
2017-10-11T10:38:27.030Z,15.9
2017-10-11T10:39:39.601Z,16.03
2017-10-11T10:40:51.845Z,15.92
2017-10-11T10:42:04.417Z,16.06
2017-10-11T10:43:16.986Z,16.1
2017-10-11T10:44:29.552Z,16.18
2017-10-11T10:45:42.102Z,16.17
2017-10-11T10:46:54.673Z,16.08
2017-10-11T10:48:07.245Z,16.1
2017-10-11T10:49:19.508Z,16.09
2017-10-11T10:50:32.087Z,16.13
2017-10-11T10:51:44.655Z,16.12
2017-10-11T10:52:57.219Z,16.13
2017-10-11T10:54:09.476Z,16
2017-10-11T10:55:22.044Z,16
2017-10-11T10:56:33.663Z,15.91
2017-10-11T10:57:45.909Z,15.91
2017-10-11T10:58:58.480Z,15.83
2017-10-11T11:00:10.728Z,15.83
2017-10-11T11:01:23.024Z,15.75
2017-10-11T11:02:35.593Z,15.76
2017-10-11T11:03:48.167Z,15.76
2017-10-11T11:05:00.426Z,15.69
2017-10-11T11:06:12.681Z,15.65
2017-10-11T11:07:25.272Z,15.72
2017-10-11T11:08:37.822Z,15.69
2017-10-11T11:09:50.390Z,15.66
2017-10-11T11:11:02.961Z,15.62
2017-10-11T11:12:15.211Z,15.6
2017-10-11T11:13:27.454Z,15.54
2017-10-11T11:14:40.025Z,15.51
2017-10-11T11:15:52.597Z,15.5
2017-10-11T11:17:04.533Z,15.47
2017-10-11T11:18:16.778Z,15.5
2017-10-11T11:19:29.036Z,15.5
2017-10-11T11:20:41.303Z,15.48
2017-10-11T11:21:53.554Z,15.57
2017-10-11T11:23:06.119Z,15.63
2017-10-11T11:24:18.382Z,15.7
2017-10-11T11:25:30.953Z,15.65
2017-10-11T11:26:43.561Z,15.67
2017-10-11T11:27:55.506Z,15.72
2017-10-11T11:29:08.084Z,15.66
2017-10-11T11:30:20.667Z,15.63
2017-10-11T11:31:33.239Z,15.65
2017-10-11T11:32:45.163Z,15.62
2017-10-11T11:33:57.405Z,15.7
2017-10-11T11:35:09.976Z,15.67
2017-10-11T11:36:22.221Z,15.69
2017-10-11T11:37:34.797Z,15.78
2017-10-11T11:38:47.387Z,15.73
2017-10-11T11:39:59.638Z,15.66
2017-10-11T11:41:11.878Z,15.7
2017-10-11T11:42:23.500Z,15.73
2017-10-11T11:43:35.770Z,15.69
2017-10-11T11:44:47.390Z,15.7
2017-10-11T11:45:59.960Z,15.7
2017-10-11T11:47:12.550Z,15.66
2017-10-11T11:48:25.131Z,15.72
2017-10-11T11:49:37.700Z,15.62
2017-10-11T11:50:49.992Z,15.54
2017-10-11T11:52:02.239Z,15.57
2017-10-11T11:53:14.811Z,15.57
2017-10-11T11:54:27.384Z,15.51
2017-10-11T11:55:39.951Z,15.52
2017-10-11T11:56:52.196Z,15.59
2017-10-11T11:58:04.770Z,15.55
2017-10-11T11:59:16.712Z,15.54
2017-10-11T12:00:29.283Z,15.59
2017-10-11T12:01:41.855Z,15.6
2017-10-11T12:02:54.425Z,15.55
2017-10-11T12:04:07.017Z,15.57
2017-10-11T12:05:18.941Z,15.6
2017-10-11T12:06:31.188Z,15.63
2017-10-11T12:07:43.133Z,15.62
2017-10-11T12:08:55.395Z,15.62
2017-10-11T12:10:07.342Z,15.65
2017-10-11T12:11:19.920Z,15.59
2017-10-11T12:12:32.517Z,15.67
2017-10-11T12:13:45.164Z,15.7
2017-10-11T12:14:57.435Z,15.66
2017-10-11T12:16:09.677Z,15.66
2017-10-11T12:17:21.922Z,15.69
2017-10-11T12:18:33.543Z,15.69
2017-10-11T12:19:45.791Z,15.69
2017-10-11T12:20:58.036Z,15.7
2017-10-11T12:22:10.630Z,15.66
2017-10-11T12:23:22.894Z,15.65
2017-10-11T12:24:35.471Z,15.6
2017-10-11T12:25:47.743Z,15.59
2017-10-11T12:26:59.989Z,15.6
2017-10-11T12:28:12.258Z,15.7
2017-10-11T12:29:24.521Z,15.66
2017-10-11T12:30:37.100Z,15.66
2017-10-11T12:31:49.697Z,15.66
2017-10-11T12:33:02.269Z,15.66
2017-10-11T12:34:14.537Z,15.63
2017-10-11T12:35:26.483Z,15.66
2017-10-11T12:36:39.070Z,15.69
2017-10-11T12:37:51.924Z,15.75
2017-10-11T12:39:04.494Z,15.75
2017-10-11T12:40:16.765Z,15.76
2017-10-11T12:41:29.336Z,15.8
2017-10-11T12:42:41.924Z,15.84
2017-10-11T12:43:53.851Z,15.76
2017-10-11T12:45:06.423Z,15.87
2017-10-11T12:46:18.669Z,15.91
2017-10-11T12:47:30.914Z,15.94
2017-10-11T12:48:42.859Z,15.9
2017-10-11T12:49:55.430Z,16
2017-10-11T12:51:07.354Z,15.99
2017-10-11T12:52:19.276Z,15.99
2017-10-11T12:53:31.896Z,16.1
2017-10-11T12:54:44.462Z,16.12
2017-10-11T12:55:56.383Z,16.16
2017-10-11T12:57:08.311Z,16.25
2017-10-11T12:58:20.550Z,16.28
2017-10-11T12:59:33.119Z,16.41
2017-10-11T13:00:45.383Z,16.34
2017-10-11T13:01:57.955Z,16.37
2017-10-11T13:03:10.532Z,16.5
2017-10-11T13:04:23.120Z,16.47
2017-10-11T13:05:35.374Z,16.54
2017-10-11T13:06:47.936Z,16.59
2017-10-11T13:08:00.509Z,16.69
2017-10-11T13:09:12.763Z,16.83
2017-10-11T13:10:25.032Z,16.79
2017-10-11T13:11:36.951Z,16.82
2017-10-11T13:12:49.198Z,16.84
2017-10-11T13:14:01.772Z,16.94
2017-10-11T13:15:14.015Z,16.87
2017-10-11T13:16:26.288Z,16.94
2017-10-11T13:17:38.855Z,16.95
2017-10-11T13:18:51.425Z,16.97
2017-10-11T13:20:03.671Z,16.97
2017-10-11T13:21:15.616Z,16.99
2017-10-11T13:22:27.864Z,16.97
2017-10-11T13:23:39.501Z,16.99
2017-10-11T13:24:51.754Z,16.98
2017-10-11T13:26:04.017Z,17.07
2017-10-11T13:27:15.948Z,16.95
2017-10-11T13:28:28.521Z,16.97
2017-10-11T13:29:41.089Z,16.99
2017-10-11T13:30:53.332Z,16.99
2017-10-11T13:32:05.903Z,17.04
2017-10-11T13:33:18.474Z,17.05
2017-10-11T13:34:30.412Z,17.07
2017-10-11T13:35:42.982Z,17.04
2017-10-11T13:36:54.912Z,17.02
2017-10-11T13:38:07.155Z,16.97
2017-10-11T13:39:19.732Z,17.02
2017-10-11T13:40:31.673Z,17.04
2017-10-11T13:41:43.942Z,16.97
2017-10-11T13:42:56.206Z,17.07
2017-10-11T13:44:08.434Z,16.98
2017-10-11T13:45:20.705Z,16.95
2017-10-11T13:46:32.968Z,16.87
2017-10-11T13:47:45.550Z,16.92
2017-10-11T13:48:57.467Z,16.83
2017-10-11T13:50:09.065Z,16.74
2017-10-11T13:51:21.334Z,16.82
2017-10-11T13:52:33.904Z,16.69
2017-10-11T13:53:46.526Z,16.65
2017-10-11T13:54:58.471Z,16.55
2017-10-11T13:56:10.417Z,16.47
2017-10-11T13:57:22.987Z,16.46
2017-10-11T13:58:34.620Z,16.5
2017-10-11T13:59:46.852Z,16.41
2017-10-11T14:00:59.107Z,16.36
2017-10-11T14:02:11.693Z,16.28
2017-10-11T14:03:23.632Z,16.37
2017-10-11T14:04:35.878Z,16.29
2017-10-11T14:05:48.456Z,16.29
2017-10-11T14:07:01.026Z,16.24
2017-10-11T14:08:12.973Z,16.26
2017-10-11T14:09:25.561Z,16.17
2017-10-11T14:10:38.131Z,16.13
2017-10-11T14:11:50.703Z,16.13
2017-10-11T14:13:03.272Z,16.08
2017-10-11T14:14:15.525Z,16.12
2017-10-11T14:15:27.772Z,16.09
2017-10-11T14:16:40.025Z,15.99
2017-10-11T14:17:52.288Z,16.08
2017-10-11T14:19:04.862Z,15.98
2017-10-11T14:20:17.453Z,15.94
2017-10-11T14:21:30.024Z,16.02
2017-10-11T14:22:42.270Z,15.96
2017-10-11T14:23:54.208Z,15.92
2017-10-11T14:25:06.468Z,15.98
2017-10-11T14:26:19.057Z,15.98
2017-10-11T14:27:31.303Z,15.94
2017-10-11T14:28:43.874Z,15.96
2017-10-11T14:29:56.119Z,16.02
2017-10-11T14:31:08.395Z,15.96
2017-10-11T14:32:20.960Z,15.88
2017-10-11T14:33:32.905Z,15.85
2017-10-11T14:34:45.494Z,15.85
2017-10-11T14:35:57.747Z,15.92
2017-10-11T14:37:09.046Z,15.88
2017-10-11T14:38:21.638Z,15.87
2017-10-11T14:39:34.210Z,15.96
2017-10-11T14:40:46.480Z,15.92
2017-10-11T14:41:59.052Z,15.84
2017-10-11T14:43:10.996Z,15.76
2017-10-11T14:44:22.943Z,15.96
2017-10-11T14:45:35.197Z,15.85
2017-10-11T14:46:47.784Z,15.88
2017-10-11T14:48:00.030Z,15.87
2017-10-11T14:49:12.299Z,15.88
2017-10-11T14:50:24.870Z,15.9
2017-10-11T14:51:37.441Z,15.96
2017-10-11T14:52:49.686Z,15.9
2017-10-11T14:54:01.624Z,15.92
2017-10-11T14:55:13.554Z,15.94
2017-10-11T14:56:26.123Z,15.94
2017-10-11T14:57:38.375Z,15.88
2017-10-11T14:58:50.632Z,15.91
2017-10-11T15:00:02.563Z,15.9
2017-10-11T15:01:15.132Z,15.91
2017-10-11T15:02:27.377Z,15.94
2017-10-11T15:03:38.997Z,15.9
2017-10-11T15:04:51.287Z,15.94
2017-10-11T15:06:03.839Z,15.91
2017-10-11T15:07:16.084Z,15.9
2017-10-11T15:08:28.654Z,15.94
2017-10-11T15:09:41.225Z,15.94
2017-10-11T15:10:53.147Z,15.91
2017-10-11T15:12:05.718Z,15.91
2017-10-11T15:13:17.694Z,15.92
2017-10-11T15:14:29.959Z,15.96
2017-10-11T15:15:42.203Z,15.91
2017-10-11T15:16:53.800Z,15.92
2017-10-11T15:18:06.370Z,15.9
2017-10-11T15:19:18.644Z,15.88
2017-10-11T15:20:30.904Z,15.84
2017-10-11T15:21:42.810Z,15.87
2017-10-11T15:22:55.052Z,15.96
2017-10-11T15:24:07.628Z,15.85
2017-10-11T15:25:19.894Z,15.85
2017-10-11T15:26:32.464Z,15.87
2017-10-11T15:27:44.728Z,15.9
2017-10-11T15:28:56.656Z,15.98
2017-10-11T15:30:08.904Z,15.92
2017-10-11T15:31:21.473Z,15.94
2017-10-11T15:32:34.069Z,15.99
2017-10-11T15:33:46.645Z,15.92
2017-10-11T15:34:59.209Z,15.9